sensor_id;sensor_type;location;lat;lon;timestamp;P1;durP1;ratioP1;P2;durP2;ratioP2
28762;SDS011;15918;51.270;6.522;2024-01-11T00:00:58;59.63;;;42.03;;
28762;SDS011;15918;51.270;6.522;2024-01-11T00:03:24;55.22;;;40.95;;
28762;SDS011;15918;51.270;6.522;2024-01-11T00:05:50;53.15;;;40.38;;
28762;SDS011;15918;51.270;6.522;2024-01-11T00:08:16;56.35;;;41.83;;
28762;SDS011;15918;51.270;6.522;2024-01-11T00:10:41;52.72;;;40.80;;
28762;SDS011;15918;51.270;6.522;2024-01-11T00:13:07;53.67;;;41.83;;
28762;SDS011;15918;51.270;6.522;2024-01-11T00:15:32;51.67;;;40.97;;
28762;SDS011;15918;51.270;6.522;2024-01-11T00:17:58;53.72;;;41.58;;
28762;SDS011;15918;51.270;6.522;2024-01-11T00:20:23;57.95;;;42.58;;
28762;SDS011;15918;51.270;6.522;2024-01-11T00:22:49;55.38;;;41.70;;
28762;SDS011;15918;51.270;6.522;2024-01-11T00:25:15;53.20;;;41.58;;
28762;SDS011;15918;51.270;6.522;2024-01-11T00:27:40;54.85;;;43.20;;
28762;SDS011;15918;51.270;6.522;2024-01-11T00:30:06;51.75;;;41.13;;
28762;SDS011;15918;51.270;6.522;2024-01-11T00:32:32;56.10;;;41.78;;
28762;SDS011;15918;51.270;6.522;2024-01-11T00:34:58;53.58;;;42.35;;
28762;SDS011;15918;51.270;6.522;2024-01-11T00:37:23;56.67;;;41.78;;
28762;SDS011;15918;51.270;6.522;2024-01-11T00:39:50;55.35;;;40.70;;
28762;SDS011;15918;51.270;6.522;2024-01-11T00:42:15;54.85;;;42.10;;
28762;SDS011;15918;51.270;6.522;2024-01-11T00:44:41;60.20;;;42.45;;
28762;SDS011;15918;51.270;6.522;2024-01-11T00:47:06;53.88;;;42.70;;
28762;SDS011;15918;51.270;6.522;2024-01-11T00:49:32;54.63;;;41.75;;
28762;SDS011;15918;51.270;6.522;2024-01-11T00:51:58;59.75;;;42.38;;
28762;SDS011;15918;51.270;6.522;2024-01-11T00:54:23;52.58;;;41.53;;
28762;SDS011;15918;51.270;6.522;2024-01-11T00:56:49;56.45;;;41.78;;
28762;SDS011;15918;51.270;6.522;2024-01-11T00:59:15;57.40;;;41.47;;
28762;SDS011;15918;51.270;6.522;2024-01-11T01:01:46;54.15;;;41.90;;
28762;SDS011;15918;51.270;6.522;2024-01-11T01:04:12;51.92;;;40.45;;
28762;SDS011;15918;51.270;6.522;2024-01-11T01:06:38;54.58;;;41.65;;
28762;SDS011;15918;51.270;6.522;2024-01-11T01:09:03;51.35;;;40.95;;
28762;SDS011;15918;51.270;6.522;2024-01-11T01:11:29;51.03;;;41.38;;
28762;SDS011;15918;51.270;6.522;2024-01-11T01:13:55;54.67;;;42.03;;
28762;SDS011;15918;51.270;6.522;2024-01-11T01:16:20;55.10;;;42.42;;
28762;SDS011;15918;51.270;6.522;2024-01-11T01:18:46;57.90;;;41.05;;
28762;SDS011;15918;51.270;6.522;2024-01-11T01:21:11;59.08;;;44.05;;
28762;SDS011;15918;51.270;6.522;2024-01-11T01:23:37;55.38;;;41.50;;
28762;SDS011;15918;51.270;6.522;2024-01-11T01:26:03;52.22;;;41.15;;
28762;SDS011;15918;51.270;6.522;2024-01-11T01:28:28;53.40;;;40.85;;
28762;SDS011;15918;51.270;6.522;2024-01-11T01:30:54;55.30;;;41.08;;
28762;SDS011;15918;51.270;6.522;2024-01-11T01:33:19;55.55;;;40.40;;
28762;SDS011;15918;51.270;6.522;2024-01-11T01:35:45;54.50;;;41.30;;
28762;SDS011;15918;51.270;6.522;2024-01-11T01:38:11;51.47;;;39.78;;
28762;SDS011;15918;51.270;6.522;2024-01-11T01:40:37;54.20;;;41.67;;
28762;SDS011;15918;51.270;6.522;2024-01-11T01:43:06;55.45;;;41.78;;
28762;SDS011;15918;51.270;6.522;2024-01-11T01:45:33;56.33;;;41.63;;
28762;SDS011;15918;51.270;6.522;2024-01-11T01:47:58;49.88;;;40.38;;
28762;SDS011;15918;51.270;6.522;2024-01-11T01:50:24;56.75;;;40.90;;
28762;SDS011;15918;51.270;6.522;2024-01-11T01:52:51;55.15;;;41.58;;
28762;SDS011;15918;51.270;6.522;2024-01-11T01:55:17;54.45;;;41.83;;
28762;SDS011;15918;51.270;6.522;2024-01-11T01:57:44;54.20;;;41.80;;
28762;SDS011;15918;51.270;6.522;2024-01-11T02:00:12;55.95;;;42.67;;
28762;SDS011;15918;51.270;6.522;2024-01-11T02:02:39;51.70;;;42.03;;
28762;SDS011;15918;51.270;6.522;2024-01-11T02:05:08;54.50;;;42.25;;
28762;SDS011;15918;51.270;6.522;2024-01-11T02:07:35;52.65;;;41.17;;
28762;SDS011;15918;51.270;6.522;2024-01-11T02:10:01;53.95;;;41.30;;
28762;SDS011;15918;51.270;6.522;2024-01-11T02:12:28;56.92;;;42.95;;
28762;SDS011;15918;51.270;6.522;2024-01-11T02:14:54;55.92;;;41.78;;
28762;SDS011;15918;51.270;6.522;2024-01-11T02:17:20;53.70;;;41.63;;
28762;SDS011;15918;51.270;6.522;2024-01-11T02:19:46;58.20;;;42.55;;
28762;SDS011;15918;51.270;6.522;2024-01-11T02:22:56;52.25;;;41.50;;
28762;SDS011;15918;51.270;6.522;2024-01-11T02:25:02;56.67;;;43.08;;
28762;SDS011;15918;51.270;6.522;2024-01-11T02:27:28;59.00;;;47.03;;
28762;SDS011;15918;51.270;6.522;2024-01-11T02:29:54;59.25;;;48.28;;
28762;SDS011;15918;51.270;6.522;2024-01-11T02:32:20;66.00;;;50.33;;
28762;SDS011;15918;51.270;6.522;2024-01-11T02:34:45;63.03;;;49.05;;
28762;SDS011;15918;51.270;6.522;2024-01-11T02:37:12;60.20;;;47.47;;
28762;SDS011;15918;51.270;6.522;2024-01-11T02:39:38;54.25;;;45.40;;
28762;SDS011;15918;51.270;6.522;2024-01-11T02:42:04;59.95;;;46.65;;
28762;SDS011;15918;51.270;6.522;2024-01-11T02:44:30;57.08;;;44.10;;
28762;SDS011;15918;51.270;6.522;2024-01-11T02:46:55;57.78;;;45.47;;
28762;SDS011;15918;51.270;6.522;2024-01-11T02:49:21;59.75;;;45.97;;
28762;SDS011;15918;51.270;6.522;2024-01-11T02:51:46;62.58;;;47.22;;
28762;SDS011;15918;51.270;6.522;2024-01-11T02:54:12;60.75;;;45.35;;
28762;SDS011;15918;51.270;6.522;2024-01-11T02:56:38;56.17;;;45.33;;
28762;SDS011;15918;51.270;6.522;2024-01-11T02:59:03;62.28;;;46.22;;
28762;SDS011;15918;51.270;6.522;2024-01-11T03:01:29;60.65;;;45.88;;
28762;SDS011;15918;51.270;6.522;2024-01-11T03:03:54;60.80;;;46.22;;
28762;SDS011;15918;51.270;6.522;2024-01-11T03:06:22;63.13;;;47.70;;
28762;SDS011;15918;51.270;6.522;2024-01-11T03:08:48;59.25;;;47.03;;
28762;SDS011;15918;51.270;6.522;2024-01-11T03:11:14;60.20;;;47.58;;
28762;SDS011;15918;51.270;6.522;2024-01-11T03:13:41;59.05;;;46.03;;
28762;SDS011;15918;51.270;6.522;2024-01-11T03:16:06;56.85;;;45.75;;
28762;SDS011;15918;51.270;6.522;2024-01-11T03:18:32;62.85;;;47.60;;
28762;SDS011;15918;51.270;6.522;2024-01-11T03:20:58;61.63;;;48.47;;
28762;SDS011;15918;51.270;6.522;2024-01-11T03:23:23;59.78;;;47.38;;
28762;SDS011;15918;51.270;6.522;2024-01-11T03:25:49;61.50;;;47.15;;
28762;SDS011;15918;51.270;6.522;2024-01-11T03:28:15;59.30;;;46.90;;
28762;SDS011;15918;51.270;6.522;2024-01-11T03:30:40;63.47;;;47.28;;
28762;SDS011;15918;51.270;6.522;2024-01-11T03:33:06;60.63;;;48.03;;
28762;SDS011;15918;51.270;6.522;2024-01-11T03:35:31;62.00;;;48.92;;
28762;SDS011;15918;51.270;6.522;2024-01-11T03:37:57;62.83;;;48.47;;
28762;SDS011;15918;51.270;6.522;2024-01-11T03:40:22;62.85;;;49.08;;
28762;SDS011;15918;51.270;6.522;2024-01-11T03:42:48;61.40;;;48.40;;
28762;SDS011;15918;51.270;6.522;2024-01-11T03:45:16;62.40;;;48.25;;
28762;SDS011;15918;51.270;6.522;2024-01-11T03:47:44;64.43;;;49.90;;
28762;SDS011;15918;51.270;6.522;2024-01-11T03:50:09;63.63;;;50.03;;
28762;SDS011;15918;51.270;6.522;2024-01-11T03:52:35;61.20;;;48.03;;
28762;SDS011;15918;51.270;6.522;2024-01-11T03:55:00;60.67;;;48.13;;
28762;SDS011;15918;51.270;6.522;2024-01-11T03:57:26;64.63;;;48.72;;
28762;SDS011;15918;51.270;6.522;2024-01-11T03:59:51;62.50;;;48.63;;
28762;SDS011;15918;51.270;6.522;2024-01-11T04:02:17;62.60;;;48.47;;
28762;SDS011;15918;51.270;6.522;2024-01-11T04:04:43;64.50;;;48.63;;
28762;SDS011;15918;51.270;6.522;2024-01-11T04:07:08;57.63;;;48.47;;
28762;SDS011;15918;51.270;6.522;2024-01-11T04:09:36;62.13;;;48.60;;
28762;SDS011;15918;51.270;6.522;2024-01-11T04:12:03;62.88;;;49.35;;
28762;SDS011;15918;51.270;6.522;2024-01-11T04:14:29;66.18;;;50.08;;
28762;SDS011;15918;51.270;6.522;2024-01-11T04:16:54;63.00;;;47.50;;
28762;SDS011;15918;51.270;6.522;2024-01-11T04:19:20;59.75;;;46.85;;
28762;SDS011;15918;51.270;6.522;2024-01-11T04:21:46;67.63;;;49.80;;
28762;SDS011;15918;51.270;6.522;2024-01-11T04:24:11;63.55;;;48.38;;
28762;SDS011;15918;51.270;6.522;2024-01-11T04:26:37;65.30;;;50.35;;
28762;SDS011;15918;51.270;6.522;2024-01-11T04:29:02;66.10;;;48.58;;
28762;SDS011;15918;51.270;6.522;2024-01-11T04:31:28;63.30;;;49.47;;
28762;SDS011;15918;51.270;6.522;2024-01-11T04:33:54;67.00;;;49.33;;
28762;SDS011;15918;51.270;6.522;2024-01-11T04:36:20;64.78;;;49.63;;
28762;SDS011;15918;51.270;6.522;2024-01-11T04:38:45;64.55;;;50.17;;
28762;SDS011;15918;51.270;6.522;2024-01-11T04:41:11;65.95;;;49.47;;
28762;SDS011;15918;51.270;6.522;2024-01-11T04:43:38;65.13;;;50.67;;
28762;SDS011;15918;51.270;6.522;2024-01-11T04:46:20;60.92;;;49.55;;
28762;SDS011;15918;51.270;6.522;2024-01-11T04:48:47;64.10;;;50.38;;
28762;SDS011;15918;51.270;6.522;2024-01-11T04:51:17;62.78;;;49.53;;
28762;SDS011;15918;51.270;6.522;2024-01-11T04:53:43;67.70;;;49.45;;
28762;SDS011;15918;51.270;6.522;2024-01-11T04:56:11;57.85;;;47.92;;
28762;SDS011;15918;51.270;6.522;2024-01-11T04:58:39;66.75;;;49.53;;
28762;SDS011;15918;51.270;6.522;2024-01-11T05:01:06;65.03;;;50.30;;
28762;SDS011;15918;51.270;6.522;2024-01-11T05:03:32;66.55;;;50.75;;
28762;SDS011;15918;51.270;6.522;2024-01-11T05:05:58;64.28;;;48.92;;
28762;SDS011;15918;51.270;6.522;2024-01-11T05:08:27;64.55;;;50.92;;
28762;SDS011;15918;51.270;6.522;2024-01-11T05:10:53;63.20;;;48.22;;
28762;SDS011;15918;51.270;6.522;2024-01-11T05:13:19;67.53;;;50.85;;
28762;SDS011;15918;51.270;6.522;2024-01-11T05:15:45;65.53;;;49.00;;
28762;SDS011;15918;51.270;6.522;2024-01-11T05:18:11;62.35;;;49.90;;
28762;SDS011;15918;51.270;6.522;2024-01-11T05:20:37;65.55;;;51.38;;
28762;SDS011;15918;51.270;6.522;2024-01-11T05:23:03;63.33;;;50.45;;
28762;SDS011;15918;51.270;6.522;2024-01-11T05:25:32;64.28;;;50.25;;
28762;SDS011;15918;51.270;6.522;2024-01-11T05:28:00;62.80;;;49.13;;
28762;SDS011;15918;51.270;6.522;2024-01-11T05:30:27;63.85;;;50.40;;
28762;SDS011;15918;51.270;6.522;2024-01-11T05:32:53;61.90;;;48.08;;
28762;SDS011;15918;51.270;6.522;2024-01-11T05:35:19;65.15;;;49.53;;
28762;SDS011;15918;51.270;6.522;2024-01-11T05:37:44;62.45;;;48.88;;
28762;SDS011;15918;51.270;6.522;2024-01-11T05:40:10;63.80;;;50.40;;
28762;SDS011;15918;51.270;6.522;2024-01-11T05:42:36;66.90;;;53.38;;
28762;SDS011;15918;51.270;6.522;2024-01-11T05:45:03;73.53;;;52.08;;
28762;SDS011;15918;51.270;6.522;2024-01-11T05:47:29;60.17;;;49.47;;
28762;SDS011;15918;51.270;6.522;2024-01-11T05:49:55;65.80;;;50.20;;
28762;SDS011;15918;51.270;6.522;2024-01-11T05:52:21;62.00;;;48.78;;
28762;SDS011;15918;51.270;6.522;2024-01-11T05:54:46;63.35;;;48.42;;
28762;SDS011;15918;51.270;6.522;2024-01-11T05:57:12;62.13;;;49.45;;
28762;SDS011;15918;51.270;6.522;2024-01-11T05:59:42;64.38;;;49.85;;
28762;SDS011;15918;51.270;6.522;2024-01-11T06:02:09;63.60;;;48.72;;
28762;SDS011;15918;51.270;6.522;2024-01-11T06:04:35;62.70;;;48.03;;
28762;SDS011;15918;51.270;6.522;2024-01-11T06:07:01;58.90;;;47.22;;
28762;SDS011;15918;51.270;6.522;2024-01-11T06:09:26;66.00;;;50.63;;
28762;SDS011;15918;51.270;6.522;2024-01-11T06:11:52;64.05;;;50.65;;
28762;SDS011;15918;51.270;6.522;2024-01-11T06:14:18;64.13;;;49.75;;
28762;SDS011;15918;51.270;6.522;2024-01-11T06:16:43;63.50;;;49.92;;
28762;SDS011;15918;51.270;6.522;2024-01-11T06:19:09;66.90;;;50.67;;
28762;SDS011;15918;51.270;6.522;2024-01-11T06:21:35;66.30;;;50.85;;
28762;SDS011;15918;51.270;6.522;2024-01-11T06:24:01;63.40;;;49.92;;
28762;SDS011;15918;51.270;6.522;2024-01-11T06:26:28;65.82;;;49.28;;
28762;SDS011;15918;51.270;6.522;2024-01-11T06:28:54;64.90;;;49.42;;
28762;SDS011;15918;51.270;6.522;2024-01-11T06:31:19;71.75;;;49.92;;
28762;SDS011;15918;51.270;6.522;2024-01-11T06:33:45;62.63;;;50.00;;
28762;SDS011;15918;51.270;6.522;2024-01-11T06:36:10;59.28;;;47.92;;
28762;SDS011;15918;51.270;6.522;2024-01-11T06:38:36;64.47;;;49.30;;
28762;SDS011;15918;51.270;6.522;2024-01-11T06:41:02;66.55;;;50.63;;
28762;SDS011;15918;51.270;6.522;2024-01-11T06:43:27;60.08;;;48.78;;
28762;SDS011;15918;51.270;6.522;2024-01-11T06:45:53;66.55;;;49.65;;
28762;SDS011;15918;51.270;6.522;2024-01-11T06:48:19;70.85;;;51.10;;
28762;SDS011;15918;51.270;6.522;2024-01-11T06:50:44;67.35;;;50.03;;
28762;SDS011;15918;51.270;6.522;2024-01-11T06:53:10;67.85;;;51.55;;
28762;SDS011;15918;51.270;6.522;2024-01-11T06:55:36;65.00;;;48.53;;
28762;SDS011;15918;51.270;6.522;2024-01-11T06:58:01;61.95;;;47.92;;
28762;SDS011;15918;51.270;6.522;2024-01-11T07:00:27;64.68;;;50.78;;
28762;SDS011;15918;51.270;6.522;2024-01-11T07:02:53;67.95;;;50.38;;
28762;SDS011;15918;51.270;6.522;2024-01-11T07:05:18;61.55;;;49.38;;
28762;SDS011;15918;51.270;6.522;2024-01-11T07:07:44;63.88;;;50.20;;
28762;SDS011;15918;51.270;6.522;2024-01-11T07:10:10;62.75;;;49.17;;
28762;SDS011;15918;51.270;6.522;2024-01-11T07:12:35;67.05;;;51.53;;
28762;SDS011;15918;51.270;6.522;2024-01-11T07:15:03;64.10;;;49.63;;
28762;SDS011;15918;51.270;6.522;2024-01-11T07:17:29;67.40;;;51.33;;
28762;SDS011;15918;51.270;6.522;2024-01-11T07:19:55;63.33;;;49.97;;
28762;SDS011;15918;51.270;6.522;2024-01-11T07:22:21;62.67;;;50.38;;
28762;SDS011;15918;51.270;6.522;2024-01-11T07:24:46;64.50;;;50.28;;
28762;SDS011;15918;51.270;6.522;2024-01-11T07:27:12;67.22;;;51.45;;
28762;SDS011;15918;51.270;6.522;2024-01-11T07:29:38;65.55;;;48.42;;
28762;SDS011;15918;51.270;6.522;2024-01-11T07:32:03;64.72;;;52.35;;
28762;SDS011;15918;51.270;6.522;2024-01-11T07:34:29;66.95;;;50.58;;
28762;SDS011;15918;51.270;6.522;2024-01-11T07:36:55;66.07;;;50.95;;
28762;SDS011;15918;51.270;6.522;2024-01-11T07:39:21;69.70;;;52.72;;
28762;SDS011;15918;51.270;6.522;2024-01-11T07:41:47;64.35;;;50.13;;
28762;SDS011;15918;51.270;6.522;2024-01-11T07:44:13;71.43;;;51.92;;
28762;SDS011;15918;51.270;6.522;2024-01-11T07:46:39;69.50;;;53.22;;
28762;SDS011;15918;51.270;6.522;2024-01-11T07:49:05;68.38;;;51.42;;
28762;SDS011;15918;51.270;6.522;2024-01-11T07:51:31;68.88;;;51.15;;
28762;SDS011;15918;51.270;6.522;2024-01-11T07:53:57;65.93;;;50.55;;
28762;SDS011;15918;51.270;6.522;2024-01-11T07:56:23;65.82;;;51.88;;
28762;SDS011;15918;51.270;6.522;2024-01-11T07:58:49;69.15;;;52.67;;
28762;SDS011;15918;51.270;6.522;2024-01-11T08:01:15;67.15;;;51.38;;
28762;SDS011;15918;51.270;6.522;2024-01-11T08:03:41;66.45;;;52.60;;
28762;SDS011;15918;51.270;6.522;2024-01-11T08:06:07;63.95;;;50.00;;
28762;SDS011;15918;51.270;6.522;2024-01-11T08:08:33;66.70;;;51.92;;
28762;SDS011;15918;51.270;6.522;2024-01-11T08:10:59;69.15;;;52.72;;
28762;SDS011;15918;51.270;6.522;2024-01-11T08:13:25;62.72;;;50.55;;
28762;SDS011;15918;51.270;6.522;2024-01-11T08:15:50;70.30;;;51.85;;
28762;SDS011;15918;51.270;6.522;2024-01-11T08:18:18;65.30;;;50.30;;
28762;SDS011;15918;51.270;6.522;2024-01-11T08:20:44;68.25;;;51.22;;
28762;SDS011;15918;51.270;6.522;2024-01-11T08:23:10;67.25;;;51.92;;
28762;SDS011;15918;51.270;6.522;2024-01-11T08:25:36;65.60;;;51.33;;
28762;SDS011;15918;51.270;6.522;2024-01-11T08:28:02;66.80;;;51.17;;
28762;SDS011;15918;51.270;6.522;2024-01-11T08:30:28;65.47;;;51.78;;
28762;SDS011;15918;51.270;6.522;2024-01-11T08:32:54;67.30;;;51.42;;
28762;SDS011;15918;51.270;6.522;2024-01-11T08:35:20;65.55;;;50.08;;
28762;SDS011;15918;51.270;6.522;2024-01-11T08:37:46;65.35;;;50.92;;
28762;SDS011;15918;51.270;6.522;2024-01-11T08:40:12;65.55;;;51.35;;
28762;SDS011;15918;51.270;6.522;2024-01-11T08:42:37;65.78;;;50.65;;
28762;SDS011;15918;51.270;6.522;2024-01-11T08:45:04;64.43;;;51.25;;
28762;SDS011;15918;51.270;6.522;2024-01-11T08:47:32;68.88;;;52.30;;
28762;SDS011;15918;51.270;6.522;2024-01-11T08:49:59;65.35;;;51.28;;
28762;SDS011;15918;51.270;6.522;2024-01-11T08:52:24;67.25;;;52.17;;
28762;SDS011;15918;51.270;6.522;2024-01-11T08:54:50;65.38;;;50.67;;
28762;SDS011;15918;51.270;6.522;2024-01-11T08:57:15;70.30;;;51.53;;
28762;SDS011;15918;51.270;6.522;2024-01-11T08:59:42;68.13;;;52.47;;
28762;SDS011;15918;51.270;6.522;2024-01-11T09:02:07;68.60;;;53.00;;
28762;SDS011;15918;51.270;6.522;2024-01-11T09:04:34;69.50;;;52.92;;
28762;SDS011;15918;51.270;6.522;2024-01-11T09:06:59;69.38;;;53.22;;
28762;SDS011;15918;51.270;6.522;2024-01-11T09:09:25;72.32;;;53.63;;
28762;SDS011;15918;51.270;6.522;2024-01-11T09:11:50;66.18;;;52.80;;
28762;SDS011;15918;51.270;6.522;2024-01-11T09:14:16;68.00;;;52.10;;
28762;SDS011;15918;51.270;6.522;2024-01-11T09:16:42;65.57;;;51.15;;
28762;SDS011;15918;51.270;6.522;2024-01-11T09:19:09;69.82;;;53.58;;
28762;SDS011;15918;51.270;6.522;2024-01-11T09:21:35;68.13;;;52.85;;
28762;SDS011;15918;51.270;6.522;2024-01-11T09:24:01;71.60;;;54.50;;
28762;SDS011;15918;51.270;6.522;2024-01-11T09:26:27;69.63;;;53.60;;
28762;SDS011;15918;51.270;6.522;2024-01-11T09:28:52;71.93;;;54.50;;
28762;SDS011;15918;51.270;6.522;2024-01-11T09:31:18;68.80;;;52.22;;
28762;SDS011;15918;51.270;6.522;2024-01-11T09:33:44;69.72;;;54.28;;
28762;SDS011;15918;51.270;6.522;2024-01-11T09:36:10;72.07;;;54.60;;
28762;SDS011;15918;51.270;6.522;2024-01-11T09:38:37;70.07;;;55.65;;
28762;SDS011;15918;51.270;6.522;2024-01-11T09:41:11;71.32;;;54.70;;
28762;SDS011;15918;51.270;6.522;2024-01-11T09:43:38;73.90;;;54.67;;
28762;SDS011;15918;51.270;6.522;2024-01-11T09:46:06;71.70;;;56.53;;
28762;SDS011;15918;51.270;6.522;2024-01-11T09:48:32;69.88;;;56.95;;
28762;SDS011;15918;51.270;6.522;2024-01-11T09:51:03;71.00;;;56.08;;
28762;SDS011;15918;51.270;6.522;2024-01-11T09:53:32;69.68;;;54.75;;
28762;SDS011;15918;51.270;6.522;2024-01-11T09:55:59;73.55;;;55.83;;
28762;SDS011;15918;51.270;6.522;2024-01-11T09:58:25;77.20;;;57.90;;
28762;SDS011;15918;51.270;6.522;2024-01-11T10:00:55;77.50;;;57.10;;
28762;SDS011;15918;51.270;6.522;2024-01-11T10:03:22;73.28;;;56.33;;
28762;SDS011;15918;51.270;6.522;2024-01-11T10:05:49;70.03;;;54.17;;
28762;SDS011;15918;51.270;6.522;2024-01-11T10:08:20;71.95;;;55.55;;
28762;SDS011;15918;51.270;6.522;2024-01-11T10:10:47;69.10;;;56.53;;
28762;SDS011;15918;51.270;6.522;2024-01-11T10:13:13;70.20;;;52.40;;
28762;SDS011;15918;51.270;6.522;2024-01-11T10:15:39;71.78;;;53.80;;
28762;SDS011;15918;51.270;6.522;2024-01-11T10:18:05;72.50;;;55.35;;
28762;SDS011;15918;51.270;6.522;2024-01-11T10:20:30;75.32;;;56.88;;
28762;SDS011;15918;51.270;6.522;2024-01-11T10:22:57;72.30;;;56.63;;
28762;SDS011;15918;51.270;6.522;2024-01-11T10:25:23;73.97;;;54.92;;
28762;SDS011;15918;51.270;6.522;2024-01-11T10:27:48;66.90;;;54.78;;
28762;SDS011;15918;51.270;6.522;2024-01-11T10:30:15;71.05;;;54.30;;
28762;SDS011;15918;51.270;6.522;2024-01-11T10:32:41;69.82;;;54.75;;
28762;SDS011;15918;51.270;6.522;2024-01-11T10:35:08;76.53;;;53.58;;
28762;SDS011;15918;51.270;6.522;2024-01-11T10:37:34;73.88;;;56.15;;
28762;SDS011;15918;51.270;6.522;2024-01-11T10:40:04;69.50;;;55.00;;
28762;SDS011;15918;51.270;6.522;2024-01-11T10:42:35;72.53;;;57.25;;
28762;SDS011;15918;51.270;6.522;2024-01-11T10:45:04;69.28;;;55.65;;
28762;SDS011;15918;51.270;6.522;2024-01-11T10:47:50;71.85;;;56.90;;
28762;SDS011;15918;51.270;6.522;2024-01-11T10:50:36;70.60;;;55.10;;
28762;SDS011;15918;51.270;6.522;2024-01-11T10:55:49;70.25;;;54.00;;
28762;SDS011;15918;51.270;6.522;2024-01-11T10:58:15;69.80;;;55.20;;
28762;SDS011;15918;51.270;6.522;2024-01-11T11:00:42;69.85;;;54.88;;
28762;SDS011;15918;51.270;6.522;2024-01-11T11:03:09;70.05;;;53.70;;
28762;SDS011;15918;51.270;6.522;2024-01-11T11:05:37;69.30;;;53.33;;
28762;SDS011;15918;51.270;6.522;2024-01-11T11:08:03;74.72;;;55.85;;
28762;SDS011;15918;51.270;6.522;2024-01-11T11:10:31;70.15;;;54.78;;
28762;SDS011;15918;51.270;6.522;2024-01-11T11:12:59;65.68;;;53.22;;
28762;SDS011;15918;51.270;6.522;2024-01-11T11:15:28;70.00;;;54.20;;
28762;SDS011;15918;51.270;6.522;2024-01-11T11:17:54;69.15;;;54.90;;
28762;SDS011;15918;51.270;6.522;2024-01-11T11:20:21;68.60;;;53.85;;
28762;SDS011;15918;51.270;6.522;2024-01-11T11:23:05;72.18;;;54.42;;
28762;SDS011;15918;51.270;6.522;2024-01-11T11:25:32;69.70;;;54.50;;
28762;SDS011;15918;51.270;6.522;2024-01-11T11:27:59;71.88;;;54.42;;
28762;SDS011;15918;51.270;6.522;2024-01-11T11:30:29;70.05;;;54.65;;
28762;SDS011;15918;51.270;6.522;2024-01-11T11:32:58;68.90;;;54.65;;
28762;SDS011;15918;51.270;6.522;2024-01-11T11:35:34;68.63;;;52.88;;
28762;SDS011;15918;51.270;6.522;2024-01-11T11:38:00;74.53;;;55.25;;
28762;SDS011;15918;51.270;6.522;2024-01-11T11:40:37;71.43;;;53.90;;
28762;SDS011;15918;51.270;6.522;2024-01-11T11:43:05;65.95;;;52.35;;
28762;SDS011;15918;51.270;6.522;2024-01-11T11:45:31;66.22;;;53.22;;
28762;SDS011;15918;51.270;6.522;2024-01-11T11:47:57;70.28;;;52.90;;
28762;SDS011;15918;51.270;6.522;2024-01-11T11:50:23;67.07;;;50.92;;
28762;SDS011;15918;51.270;6.522;2024-01-11T11:52:56;71.20;;;53.22;;
28762;SDS011;15918;51.270;6.522;2024-01-11T11:55:25;69.63;;;53.15;;
28762;SDS011;15918;51.270;6.522;2024-01-11T11:57:51;65.43;;;52.45;;
28762;SDS011;15918;51.270;6.522;2024-01-11T12:00:20;65.03;;;51.70;;
28762;SDS011;15918;51.270;6.522;2024-01-11T12:02:46;68.78;;;52.95;;
28762;SDS011;15918;51.270;6.522;2024-01-11T12:05:13;67.82;;;52.30;;
28762;SDS011;15918;51.270;6.522;2024-01-11T12:07:39;63.08;;;51.13;;
28762;SDS011;15918;51.270;6.522;2024-01-11T12:10:05;63.80;;;50.42;;
28762;SDS011;15918;51.270;6.522;2024-01-11T12:12:31;66.93;;;51.90;;
28762;SDS011;15918;51.270;6.522;2024-01-11T12:14:59;62.15;;;49.72;;
28762;SDS011;15918;51.270;6.522;2024-01-11T12:17:25;63.65;;;50.83;;
28762;SDS011;15918;51.270;6.522;2024-01-11T12:19:51;64.28;;;51.08;;
28762;SDS011;15918;51.270;6.522;2024-01-11T12:22:17;63.00;;;51.05;;
28762;SDS011;15918;51.270;6.522;2024-01-11T12:24:44;67.75;;;50.92;;
28762;SDS011;15918;51.270;6.522;2024-01-11T12:27:10;63.40;;;50.20;;
28762;SDS011;15918;51.270;6.522;2024-01-11T12:29:38;70.00;;;51.58;;
28762;SDS011;15918;51.270;6.522;2024-01-11T12:32:04;62.63;;;49.63;;
28762;SDS011;15918;51.270;6.522;2024-01-11T12:34:30;61.95;;;50.03;;
28762;SDS011;15918;51.270;6.522;2024-01-11T12:36:56;63.38;;;51.55;;
28762;SDS011;15918;51.270;6.522;2024-01-11T12:39:25;64.25;;;49.72;;
28762;SDS011;15918;51.270;6.522;2024-01-11T12:41:53;67.60;;;50.50;;
28762;SDS011;15918;51.270;6.522;2024-01-11T12:44:20;63.65;;;50.03;;
28762;SDS011;15918;51.270;6.522;2024-01-11T12:46:49;62.33;;;49.10;;
28762;SDS011;15918;51.270;6.522;2024-01-11T12:49:15;59.38;;;48.20;;
28762;SDS011;15918;51.270;6.522;2024-01-11T12:51:40;61.78;;;48.35;;
28762;SDS011;15918;51.270;6.522;2024-01-11T12:54:12;59.85;;;46.63;;
28762;SDS011;15918;51.270;6.522;2024-01-11T12:56:42;57.65;;;44.85;;
28762;SDS011;15918;51.270;6.522;2024-01-11T12:59:08;63.17;;;44.67;;
28762;SDS011;15918;51.270;6.522;2024-01-11T13:01:36;55.03;;;43.40;;
28762;SDS011;15918;51.270;6.522;2024-01-11T13:04:03;59.50;;;43.55;;
28762;SDS011;15918;51.270;6.522;2024-01-11T13:06:29;53.10;;;42.22;;
28762;SDS011;15918;51.270;6.522;2024-01-11T13:08:56;53.47;;;42.17;;
28762;SDS011;15918;51.270;6.522;2024-01-11T13:11:21;54.95;;;42.83;;
28762;SDS011;15918;51.270;6.522;2024-01-11T13:13:49;55.50;;;41.47;;
28762;SDS011;15918;51.270;6.522;2024-01-11T13:16:16;52.30;;;41.45;;
28762;SDS011;15918;51.270;6.522;2024-01-11T13:18:43;54.67;;;40.17;;
28762;SDS011;15918;51.270;6.522;2024-01-11T13:21:09;47.83;;;38.65;;
28762;SDS011;15918;51.270;6.522;2024-01-11T13:23:37;50.53;;;38.58;;
28762;SDS011;15918;51.270;6.522;2024-01-11T13:26:03;49.08;;;38.92;;
28762;SDS011;15918;51.270;6.522;2024-01-11T13:28:29;45.20;;;38.03;;
28762;SDS011;15918;51.270;6.522;2024-01-11T13:30:55;49.40;;;38.28;;
28762;SDS011;15918;51.270;6.522;2024-01-11T13:33:21;50.05;;;38.70;;
28762;SDS011;15918;51.270;6.522;2024-01-11T13:35:48;47.83;;;38.75;;
28762;SDS011;15918;51.270;6.522;2024-01-11T13:38:14;47.58;;;37.85;;
28762;SDS011;15918;51.270;6.522;2024-01-11T13:40:40;46.30;;;37.58;;
28762;SDS011;15918;51.270;6.522;2024-01-11T13:43:08;45.50;;;36.47;;
28762;SDS011;15918;51.270;6.522;2024-01-11T13:45:34;44.22;;;35.80;;
28762;SDS011;15918;51.270;6.522;2024-01-11T13:48:01;48.83;;;37.40;;
28762;SDS011;15918;51.270;6.522;2024-01-11T13:50:28;48.85;;;38.63;;
28762;SDS011;15918;51.270;6.522;2024-01-11T13:52:53;48.58;;;37.10;;
28762;SDS011;15918;51.270;6.522;2024-01-11T13:55:19;51.47;;;37.60;;
28762;SDS011;15918;51.270;6.522;2024-01-11T13:57:46;44.47;;;36.33;;
28762;SDS011;15918;51.270;6.522;2024-01-11T14:00:13;42.88;;;35.45;;
28762;SDS011;15918;51.270;6.522;2024-01-11T14:02:39;43.95;;;35.08;;
28762;SDS011;15918;51.270;6.522;2024-01-11T14:05:08;44.83;;;35.47;;
28762;SDS011;15918;51.270;6.522;2024-01-11T14:07:36;41.22;;;34.50;;
28762;SDS011;15918;51.270;6.522;2024-01-11T14:10:03;44.63;;;35.45;;
28762;SDS011;15918;51.270;6.522;2024-01-11T14:12:30;42.25;;;33.20;;
28762;SDS011;15918;51.270;6.522;2024-01-11T14:14:56;41.00;;;31.85;;
28762;SDS011;15918;51.270;6.522;2024-01-11T14:17:22;40.95;;;32.63;;
28762;SDS011;15918;51.270;6.522;2024-01-11T14:19:48;37.13;;;30.80;;